sim
Sign-in with your pilot id or email,
or register
Callsign
Passwort

Schedule Details

Flight Number: OEO4663
Departure: Paris Charles de Gaulle Airport (LFPG) at 15:00
Arrival: Munich Airport (EDDM) at 16:30

Weather Information
Getting current METAR information for LFPG 210330Z 01008KT CAVOK 14/08 Q1015 NOSIG
Getting current METAR information for EDDM 210350Z VRB01KT CAVOK 07/07 Q1016 NOSIG

Schedule Frequency

Route Map